sensor_id;sensor_type;location;lat;lon;timestamp;pressure;altitude;pressure_sealevel;temperature;humidity
36748;BME280;22716;51.556;5.080;2022-12-08T00:02:13;100952.41;;;4.39;100.00
36748;BME280;22716;51.556;5.080;2022-12-08T00:04:42;100938.34;;;4.26;100.00
36748;BME280;22716;51.556;5.080;2022-12-08T00:07:23;100952.34;;;4.36;100.00
36748;BME280;22716;51.556;5.080;2022-12-08T00:10:09;100942.75;;;4.32;100.00
36748;BME280;22716;51.556;5.080;2022-12-08T00:12:39;100938.44;;;4.31;100.00
36748;BME280;22716;51.556;5.080;2022-12-08T00:15:14;100933.16;;;4.25;100.00
36748;BME280;22716;51.556;5.080;2022-12-08T00:18:03;100927.88;;;4.20;100.00
36748;BME280;22716;51.556;5.080;2022-12-08T00:20:33;100927.03;;;4.23;100.00
36748;BME280;22716;51.556;5.080;2022-12-08T00:23:02;100898.34;;;4.12;100.00
36748;BME280;22716;51.556;5.080;2022-12-08T00:25:37;100909.75;;;4.22;100.00
36748;BME280;22716;51.556;5.080;2022-12-08T00:28:06;100905.25;;;4.12;100.00
36748;BME280;22716;51.556;5.080;2022-12-08T00:30:35;100914.03;;;4.18;100.00
36748;BME280;22716;51.556;5.080;2022-12-08T00:33:13;100902.81;;;4.19;100.00
36748;BME280;22716;51.556;5.080;2022-12-08T00:35:42;100910.66;;;4.24;100.00
36748;BME280;22716;51.556;5.080;2022-12-08T00:38:11;100900.22;;;4.21;100.00
36748;BME280;22716;51.556;5.080;2022-12-08T00:40:47;100871.44;;;4.06;100.00
36748;BME280;22716;51.556;5.080;2022-12-08T00:43:15;100900.22;;;4.21;100.00
36748;BME280;22716;51.556;5.080;2022-12-08T00:45:44;100895.91;;;4.20;100.00
36748;BME280;22716;51.556;5.080;2022-12-08T00:48:13;100908.88;;;4.23;100.00
36748;BME280;22716;51.556;5.080;2022-12-08T00:50:43;100900.25;;;4.22;100.00
36748;BME280;22716;51.556;5.080;2022-12-08T00:53:12;100896.84;;;4.26;100.00
36748;BME280;22716;51.556;5.080;2022-12-08T00:55:42;100900.38;;;4.30;100.00
36748;BME280;22716;51.556;5.080;2022-12-08T00:58:13;100901.25;;;4.32;100.00
36748;BME280;22716;51.556;5.080;2022-12-08T01:00:43;100895.28;;;4.36;100.00
36748;BME280;22716;51.556;5.080;2022-12-08T01:03:12;100886.63;;;4.35;100.00
36748;BME280;22716;51.556;5.080;2022-12-08T01:05:41;100890.03;;;4.33;100.00
36748;BME280;22716;51.556;5.080;2022-12-08T01:08:11;100885.75;;;4.35;100.00
36748;BME280;22716;51.556;5.080;2022-12-08T01:10:40;100886.47;;;4.26;100.00
36748;BME280;22716;51.556;5.080;2022-12-08T01:13:09;100882.09;;;4.22;100.00
36748;BME280;22716;51.556;5.080;2022-12-08T01:15:41;100889.16;;;4.31;100.00
36748;BME280;22716;51.556;5.080;2022-12-08T01:18:10;100888.28;;;4.32;100.00
36748;BME280;22716;51.556;5.080;2022-12-08T01:20:40;100877.91;;;4.30;100.00
36748;BME280;22716;51.556;5.080;2022-12-08T01:23:10;100877.91;;;4.30;100.00
36748;BME280;22716;51.556;5.080;2022-12-08T01:25:39;100871.84;;;4.30;100.00
36748;BME280;22716;51.556;5.080;2022-12-08T01:28:08;100878.84;;;4.34;100.00
36748;BME280;22716;51.556;5.080;2022-12-08T01:30:40;100877.03;;;4.30;100.00
36748;BME280;22716;51.556;5.080;2022-12-08T01:33:10;100873.59;;;4.31;100.00
36748;BME280;22716;51.556;5.080;2022-12-08T01:35:39;100867.44;;;4.24;100.00
36748;BME280;22716;51.556;5.080;2022-12-08T01:38:09;100849.19;;;4.18;100.00
36748;BME280;22716;51.556;5.080;2022-12-08T01:40:38;100864.06;;;4.30;100.00
36748;BME280;22716;51.556;5.080;2022-12-08T01:43:08;100864.84;;;4.26;100.00
36748;BME280;22716;51.556;5.080;2022-12-08T01:45:48;100856.22;;;4.27;100.00
36748;BME280;22716;51.556;5.080;2022-12-08T01:48:20;100864.16;;;4.34;100.00
36748;BME280;22716;51.556;5.080;2022-12-08T01:50:51;100865.03;;;4.36;100.00
36748;BME280;22716;51.556;5.080;2022-12-08T01:53:30;100857.06;;;4.24;100.00
36748;BME280;22716;51.556;5.080;2022-12-08T01:56:05;100866.69;;;4.31;100.00
36748;BME280;22716;51.556;5.080;2022-12-08T01:58:44;100864.94;;;4.30;100.00
36748;BME280;22716;51.556;5.080;2022-12-08T02:01:18;100852.66;;;4.20;100.00
36748;BME280;22716;51.556;5.080;2022-12-08T02:03:55;100850.16;;;4.26;100.00
36748;BME280;22716;51.556;5.080;2022-12-08T02:06:49;100842.38;;;4.25;100.00
36748;BME280;22716;51.556;5.080;2022-12-08T02:09:21;100841.50;;;4.26;100.00
36748;BME280;22716;51.556;5.080;2022-12-08T02:11:50;100843.41;;;4.34;100.00
36748;BME280;22716;51.556;5.080;2022-12-08T02:14:20;100847.75;;;4.37;100.00
36748;BME280;22716;51.556;5.080;2022-12-08T02:16:59;100834.75;;;4.35;100.00
36748;BME280;22716;51.556;5.080;2022-12-08T02:22:39;100833.78;;;4.29;100.00
36748;BME280;22716;51.556;5.080;2022-12-08T02:25:19;100838.16;;;4.33;100.00
36748;BME280;22716;51.556;5.080;2022-12-08T02:28:04;100833.91;;;4.38;100.00
36748;BME280;22716;51.556;5.080;2022-12-08T02:30:47;100830.44;;;4.36;100.00
36748;BME280;22716;51.556;5.080;2022-12-08T02:33:50;100828.63;;;4.32;100.00
36748;BME280;22716;51.556;5.080;2022-12-08T02:36:53;100823.47;;;4.33;100.00
36748;BME280;22716;51.556;5.080;2022-12-08T02:39:33;100822.56;;;4.30;100.00
36748;BME280;22716;51.556;5.080;2022-12-08T02:42:10;100812.13;;;4.25;100.00
36748;BME280;22716;51.556;5.080;2022-12-08T02:44:51;100811.31;;;4.28;100.00
36748;BME280;22716;51.556;5.080;2022-12-08T02:47:24;100814.88;;;4.37;100.00
36748;BME280;22716;51.556;5.080;2022-12-08T02:49:58;100813.13;;;4.35;100.00
36748;BME280;22716;51.556;5.080;2022-12-08T02:52:50;100806.16;;;4.31;100.00
36748;BME280;22716;51.556;5.080;2022-12-08T02:55:24;100800.97;;;4.31;100.00
36748;BME280;22716;51.556;5.080;2022-12-08T03:01:07;100804.34;;;4.27;100.00
36748;BME280;22716;51.556;5.080;2022-12-08T03:03:49;100794.88;;;4.29;100.00
36748;BME280;22716;51.556;5.080;2022-12-08T03:06:27;100789.66;;;4.27;100.00
36748;BME280;22716;51.556;5.080;2022-12-08T03:09:03;100794.88;;;4.29;100.00
36748;BME280;22716;51.556;5.080;2022-12-08T03:11:41;100786.19;;;4.27;100.00
36748;BME280;22716;51.556;5.080;2022-12-08T03:14:16;100780.09;;;4.22;100.00
36748;BME280;22716;51.556;5.080;2022-12-08T03:16:48;100787.91;;;4.26;100.00
36748;BME280;22716;51.556;5.080;2022-12-08T03:19:29;100728.66;;;3.92;100.00
36748;BME280;22716;51.556;5.080;2022-12-08T03:22:05;100794.03;;;4.30;100.00
36748;BME280;22716;51.556;5.080;2022-12-08T03:24:37;100789.72;;;4.30;100.00
36748;BME280;22716;51.556;5.080;2022-12-08T03:27:09;100789.72;;;4.30;100.00
36748;BME280;22716;51.556;5.080;2022-12-08T03:29:40;100790.56;;;4.28;100.00
36748;BME280;22716;51.556;5.080;2022-12-08T03:32:18;100775.00;;;4.28;100.00
36748;BME280;22716;51.556;5.080;2022-12-08T03:34:51;100753.25;;;4.18;100.00
36748;BME280;22716;51.556;5.080;2022-12-08T03:37:25;100774.19;;;4.33;100.00
36748;BME280;22716;51.556;5.080;2022-12-08T03:39:55;100773.34;;;4.34;100.00
36748;BME280;22716;51.556;5.080;2022-12-08T03:42:24;100756.00;;;4.32;100.00
36748;BME280;22716;51.556;5.080;2022-12-08T03:44:54;100751.72;;;4.34;100.00
36748;BME280;22716;51.556;5.080;2022-12-08T03:47:23;100755.22;;;4.37;100.00
36748;BME280;22716;51.556;5.080;2022-12-08T03:49:52;100750.91;;;4.38;100.00
36748;BME280;22716;51.556;5.080;2022-12-08T03:52:28;100732.63;;;4.27;100.00
36748;BME280;22716;51.556;5.080;2022-12-08T03:54:57;100749.22;;;4.40;100.00
36748;BME280;22716;51.556;5.080;2022-12-08T03:57:27;100743.06;;;4.35;100.00
36748;BME280;22716;51.556;5.080;2022-12-08T03:59:56;100724.78;;;4.26;100.00
36748;BME280;22716;51.556;5.080;2022-12-08T04:02:26;100737.88;;;4.33;100.00
36748;BME280;22716;51.556;5.080;2022-12-08T04:04:54;100736.97;;;4.30;100.00
36748;BME280;22716;51.556;5.080;2022-12-08T04:07:24;100729.13;;;4.25;100.00
36748;BME280;22716;51.556;5.080;2022-12-08T04:09:55;100740.41;;;4.29;100.00
36748;BME280;22716;51.556;5.080;2022-12-08T04:12:24;100733.50;;;4.29;100.00
36748;BME280;22716;51.556;5.080;2022-12-08T04:14:54;100729.19;;;4.28;100.00
36748;BME280;22716;51.556;5.080;2022-12-08T04:17:23;100725.78;;;4.34;100.00
36748;BME280;22716;51.556;5.080;2022-12-08T04:19:52;100715.38;;;4.31;100.00
36748;BME280;22716;51.556;5.080;2022-12-08T04:22:21;100699.78;;;4.29;100.00
36748;BME280;22716;51.556;5.080;2022-12-08T04:24:51;100703.31;;;4.34;100.00
36748;BME280;22716;51.556;5.080;2022-12-08T04:27:22;100712.88;;;4.38;100.00
36748;BME280;22716;51.556;5.080;2022-12-08T04:29:53;100715.50;;;4.40;100.00
36748;BME280;22716;51.556;5.080;2022-12-08T04:32:21;100709.41;;;4.38;100.00
36748;BME280;22716;51.556;5.080;2022-12-08T04:34:51;100708.50;;;4.36;100.00
36748;BME280;22716;51.556;5.080;2022-12-08T04:37:21;100717.19;;;4.36;100.00
36748;BME280;22716;51.556;5.080;2022-12-08T04:39:50;100711.97;;;4.36;100.00
36748;BME280;22716;51.556;5.080;2022-12-08T04:42:21;100710.28;;;4.38;100.00
36748;BME280;22716;51.556;5.080;2022-12-08T04:44:50;100707.63;;;4.35;100.00
36748;BME280;22716;51.556;5.080;2022-12-08T04:47:20;100695.44;;;4.25;100.00
36748;BME280;22716;51.556;5.080;2022-12-08T04:49:49;100684.03;;;4.14;100.00
36748;BME280;22716;51.556;5.080;2022-12-08T04:52:18;100711.78;;;4.23;100.00
36748;BME280;22716;51.556;5.080;2022-12-08T04:54:48;100692.66;;;4.13;100.00
36748;BME280;22716;51.556;5.080;2022-12-08T04:57:18;100703.13;;;4.19;100.00
36748;BME280;22716;51.556;5.080;2022-12-08T04:59:51;100697.94;;;4.21;100.00
36748;BME280;22716;51.556;5.080;2022-12-08T05:02:20;100697.03;;;4.16;100.00
36748;BME280;22716;51.556;5.080;2022-12-08T05:04:49;100699.56;;;4.13;100.00
36748;BME280;22716;51.556;5.080;2022-12-08T05:07:21;100693.50;;;4.12;100.00
36748;BME280;22716;51.556;5.080;2022-12-08T05:09:50;100697.78;;;4.09;100.00
36748;BME280;22716;51.556;5.080;2022-12-08T05:12:23;100697.81;;;4.10;100.00
36748;BME280;22716;51.556;5.080;2022-12-08T05:14:55;100691.66;;;4.02;100.00
36748;BME280;22716;51.556;5.080;2022-12-08T05:17:25;100699.44;;;4.04;100.00
36748;BME280;22716;51.556;5.080;2022-12-08T05:19:54;100699.44;;;4.04;100.00
36748;BME280;22716;51.556;5.080;2022-12-08T05:22:23;100702.09;;;4.07;100.00
36748;BME280;22716;51.556;5.080;2022-12-08T05:24:52;100703.84;;;4.08;100.00
36748;BME280;22716;51.556;5.080;2022-12-08T05:27:21;100700.41;;;4.12;100.00
36748;BME280;22716;51.556;5.080;2022-12-08T05:29:55;100683.94;;;4.08;100.00
36748;BME280;22716;51.556;5.080;2022-12-08T05:32:24;100693.63;;;4.20;100.00
36748;BME280;22716;51.556;5.080;2022-12-08T05:34:53;100691.00;;;4.18;100.00
36748;BME280;22716;51.556;5.080;2022-12-08T05:37:22;100695.34;;;4.19;100.00
36748;BME280;22716;51.556;5.080;2022-12-08T05:39:51;100668.34;;;4.04;100.00
36748;BME280;22716;51.556;5.080;2022-12-08T05:42:21;100691.03;;;4.21;100.00
36748;BME280;22716;51.556;5.080;2022-12-08T05:44:54;100685.81;;;4.17;100.00
36748;BME280;22716;51.556;5.080;2022-12-08T05:47:24;100685.81;;;4.18;100.00
36748;BME280;22716;51.556;5.080;2022-12-08T05:49:54;100662.41;;;4.11;100.00
36748;BME280;22716;51.556;5.080;2022-12-08T05:52:23;100675.53;;;4.26;100.00
36748;BME280;22716;51.556;5.080;2022-12-08T05:54:52;100669.47;;;4.24;100.00
36748;BME280;22716;51.556;5.080;2022-12-08T05:57:21;100672.09;;;4.27;100.00
36748;BME280;22716;51.556;5.080;2022-12-08T05:59:58;100673.81;;;4.26;100.00
36748;BME280;22716;51.556;5.080;2022-12-08T06:02:27;100666.06;;;4.28;100.00
36748;BME280;22716;51.556;5.080;2022-12-08T06:04:56;100676.41;;;4.25;100.00
36748;BME280;22716;51.556;5.080;2022-12-08T06:07:25;100675.53;;;4.24;100.00
36748;BME280;22716;51.556;5.080;2022-12-08T06:09:55;100677.19;;;4.19;100.00
36748;BME280;22716;51.556;5.080;2022-12-08T06:12:23;100670.28;;;4.21;100.00
36748;BME280;22716;51.556;5.080;2022-12-08T06:14:54;100668.53;;;4.20;100.00
36748;BME280;22716;51.556;5.080;2022-12-08T06:17:25;100672.88;;;4.21;100.00
36748;BME280;22716;51.556;5.080;2022-12-08T06:19:55;100678.06;;;4.21;100.00
36748;BME280;22716;51.556;5.080;2022-12-08T06:22:24;100677.25;;;4.24;100.00
36748;BME280;22716;51.556;5.080;2022-12-08T06:24:53;100672.94;;;4.26;100.00
36748;BME280;22716;51.556;5.080;2022-12-08T06:27:22;100676.41;;;4.26;100.00
36748;BME280;22716;51.556;5.080;2022-12-08T06:29:51;100667.78;;;4.29;100.00
36748;BME280;22716;51.556;5.080;2022-12-08T06:32:29;100668.72;;;4.35;100.00
36748;BME280;22716;51.556;5.080;2022-12-08T06:34:57;100663.56;;;4.37;100.00
36748;BME280;22716;51.556;5.080;2022-12-08T06:37:27;100670.53;;;4.39;100.00
36748;BME280;22716;51.556;5.080;2022-12-08T06:39:56;100665.38;;;4.44;100.00
36748;BME280;22716;51.556;5.080;2022-12-08T06:42:25;100681.84;;;4.46;100.00
36748;BME280;22716;51.556;5.080;2022-12-08T06:45:14;100667.13;;;4.46;100.00
36748;BME280;22716;51.556;5.080;2022-12-08T06:47:47;100669.72;;;4.45;100.00
36748;BME280;22716;51.556;5.080;2022-12-08T06:50:18;100676.66;;;4.46;100.00
36748;BME280;22716;51.556;5.080;2022-12-08T06:52:47;100669.75;;;4.49;100.00
36748;BME280;22716;51.556;5.080;2022-12-08T06:55:18;100675.81;;;4.50;100.00
36748;BME280;22716;51.556;5.080;2022-12-08T06:57:47;100667.09;;;4.42;100.00
36748;BME280;22716;51.556;5.080;2022-12-08T07:00:19;100676.63;;;4.43;100.00
36748;BME280;22716;51.556;5.080;2022-12-08T07:02:57;100673.03;;;4.35;100.00
36748;BME280;22716;51.556;5.080;2022-12-08T07:05:26;100670.38;;;4.27;100.00
36748;BME280;22716;51.556;5.080;2022-12-08T07:07:57;100671.28;;;4.32;100.00
36748;BME280;22716;51.556;5.080;2022-12-08T07:10:26;100659.19;;;4.33;100.00
36748;BME280;22716;51.556;5.080;2022-12-08T07:12:55;100668.78;;;4.37;100.00
36748;BME280;22716;51.556;5.080;2022-12-08T07:15:25;100669.59;;;4.37;100.00
36748;BME280;22716;51.556;5.080;2022-12-08T07:17:59;100674.88;;;4.42;100.00
36748;BME280;22716;51.556;5.080;2022-12-08T07:20:27;100678.38;;;4.47;100.00
36748;BME280;22716;51.556;5.080;2022-12-08T07:22:58;100680.09;;;4.45;100.00
36748;BME280;22716;51.556;5.080;2022-12-08T07:25:26;100685.16;;;4.34;100.00
36748;BME280;22716;51.556;5.080;2022-12-08T07:27:56;100685.13;;;4.33;100.00
36748;BME280;22716;51.556;5.080;2022-12-08T07:30:25;100672.84;;;4.17;100.00
36748;BME280;22716;51.556;5.080;2022-12-08T07:32:54;100690.19;;;4.24;100.00
36748;BME280;22716;51.556;5.080;2022-12-08T07:35:26;100688.44;;;4.21;100.00
36748;BME280;22716;51.556;5.080;2022-12-08T07:37:55;100688.31;;;4.12;100.00
36748;BME280;22716;51.556;5.080;2022-12-08T07:40:24;100677.91;;;4.08;100.00
36748;BME280;22716;51.556;5.080;2022-12-08T07:42:53;100680.47;;;4.05;100.00
36748;BME280;22716;51.556;5.080;2022-12-08T07:45:22;100686.56;;;4.10;100.00
36748;BME280;22716;51.556;5.080;2022-12-08T07:47:51;100682.13;;;4.01;100.00
36748;BME280;22716;51.556;5.080;2022-12-08T07:50:20;100677.75;;;3.95;100.00
36748;BME280;22716;51.556;5.080;2022-12-08T07:52:52;100680.34;;;3.97;100.00
36748;BME280;22716;51.556;5.080;2022-12-08T07:55:23;100664.66;;;3.86;100.00
36748;BME280;22716;51.556;5.080;2022-12-08T07:57:54;100679.28;;;3.83;100.00
36748;BME280;22716;51.556;5.080;2022-12-08T08:00:24;100688.72;;;3.79;100.00
36748;BME280;22716;51.556;5.080;2022-12-08T08:02:53;100685.16;;;3.71;100.00
36748;BME280;22716;51.556;5.080;2022-12-08T08:05:22;100682.44;;;3.62;100.00
36748;BME280;22716;51.556;5.080;2022-12-08T08:07:54;100683.22;;;3.58;100.00
36748;BME280;22716;51.556;5.080;2022-12-08T08:10:23;100677.19;;;3.58;100.00
36748;BME280;22716;51.556;5.080;2022-12-08T08:12:53;100678.97;;;3.60;100.00
36748;BME280;22716;51.556;5.080;2022-12-08T08:15:22;100681.56;;;3.60;100.00
36748;BME280;22716;51.556;5.080;2022-12-08T08:17:51;100675.44;;;3.58;100.00
36748;BME280;22716;51.556;5.080;2022-12-08T08:20:40;100676.41;;;3.63;100.00
36748;BME280;22716;51.556;5.080;2022-12-08T08:23:12;100678.13;;;3.63;100.00
36748;BME280;22716;51.556;5.080;2022-12-08T08:25:41;100684.28;;;3.69;100.00
36748;BME280;22716;51.556;5.080;2022-12-08T08:28:10;100673.09;;;3.72;100.00
36748;BME280;22716;51.556;5.080;2022-12-08T08:30:41;100674.81;;;3.73;100.00
36748;BME280;22716;51.556;5.080;2022-12-08T08:33:10;100682.63;;;3.74;100.00
36748;BME280;22716;51.556;5.080;2022-12-08T08:35:39;100680.94;;;3.78;100.00
36748;BME280;22716;51.556;5.080;2022-12-08T08:38:17;100672.31;;;3.77;100.00
36748;BME280;22716;51.556;5.080;2022-12-08T08:40:47;100680.16;;;3.83;100.00
36748;BME280;22716;51.556;5.080;2022-12-08T08:43:15;100672.44;;;3.86;100.00
36748;BME280;22716;51.556;5.080;2022-12-08T08:45:58;100670.75;;;3.91;100.00
36748;BME280;22716;51.556;5.080;2022-12-08T08:48:35;100674.22;;;3.93;100.00
36748;BME280;22716;51.556;5.080;2022-12-08T08:51:11;100675.94;;;3.90;100.00
36748;BME280;22716;51.556;5.080;2022-12-08T08:53:45;100676.81;;;3.93;100.00
36748;BME280;22716;51.556;5.080;2022-12-08T08:56:17;100667.28;;;3.91;100.00
36748;BME280;22716;51.556;5.080;2022-12-08T08:58:47;100669.00;;;3.90;100.00
36748;BME280;22716;51.556;5.080;2022-12-08T09:01:22;100669.00;;;3.89;100.00
36748;BME280;22716;51.556;5.080;2022-12-08T09:03:55;100660.31;;;3.85;100.00
36748;BME280;22716;51.556;5.080;2022-12-08T09:06:34;100668.16;;;3.91;100.00
36748;BME280;22716;51.556;5.080;2022-12-08T09:09:06;100670.75;;;3.91;100.00
36748;BME280;22716;51.556;5.080;2022-12-08T09:11:35;100655.28;;;3.96;100.00
36748;BME280;22716;51.556;5.080;2022-12-08T09:14:05;100664.00;;;4.03;100.00
36748;BME280;22716;51.556;5.080;2022-12-08T09:16:35;100660.59;;;4.07;100.00
36748;BME280;22716;51.556;5.080;2022-12-08T09:19:04;100666.72;;;4.12;100.00
36748;BME280;22716;51.556;5.080;2022-12-08T09:21:33;100667.56;;;4.11;100.00
36748;BME280;22716;51.556;5.080;2022-12-08T09:24:03;100671.88;;;4.10;100.00
36748;BME280;22716;51.556;5.080;2022-12-08T09:26:36;100671.00;;;4.11;100.00
36748;BME280;22716;51.556;5.080;2022-12-08T09:29:05;100650.16;;;4.01;100.00
36748;BME280;22716;51.556;5.080;2022-12-08T09:31:35;100640.63;;;4.00;100.00
36748;BME280;22716;51.556;5.080;2022-12-08T09:34:05;100670.22;;;4.14;100.00
36748;BME280;22716;51.556;5.080;2022-12-08T09:36:39;100676.25;;;4.13;100.00
36748;BME280;22716;51.556;5.080;2022-12-08T09:39:08;100676.28;;;4.17;100.00
36748;BME280;22716;51.556;5.080;2022-12-08T09:41:46;100672.00;;;4.19;100.00
36748;BME280;22716;51.556;5.080;2022-12-08T09:44:46;100667.69;;;4.23;100.00
36748;BME280;22716;51.556;5.080;2022-12-08T09:47:42;100667.69;;;4.23;100.00
36748;BME280;22716;51.556;5.080;2022-12-08T09:50:29;100670.34;;;4.24;100.00
36748;BME280;22716;51.556;5.080;2022-12-08T09:53:08;100665.09;;;4.20;100.00
36748;BME280;22716;51.556;5.080;2022-12-08T09:55:48;100659.91;;;4.20;100.00
36748;BME280;22716;51.556;5.080;2022-12-08T09:58:28;100665.16;;;4.26;100.00
36748;BME280;22716;51.556;5.080;2022-12-08T10:01:00;100657.41;;;4.27;100.00
36748;BME280;22716;51.556;5.080;2022-12-08T10:03:30;100659.16;;;4.30;100.00
36748;BME280;22716;51.556;5.080;2022-12-08T10:06:06;100660.91;;;4.31;100.00
36748;BME280;22716;51.556;5.080;2022-12-08T10:08:45;100651.31;;;4.24;100.00
36748;BME280;22716;51.556;5.080;2022-12-08T10:11:25;100648.75;;;4.25;100.00
36748;BME280;22716;51.556;5.080;2022-12-08T10:14:10;100648.72;;;4.24;100.00
36748;BME280;22716;51.556;5.080;2022-12-08T10:16:49;100655.69;;;4.28;100.00
36748;BME280;22716;51.556;5.080;2022-12-08T10:19:24;100644.44;;;4.27;100.00
36748;BME280;22716;51.556;5.080;2022-12-08T10:21:55;100651.25;;;4.21;100.00
36748;BME280;22716;51.556;5.080;2022-12-08T10:24:32;100647.88;;;4.25;100.00
36748;BME280;22716;51.556;5.080;2022-12-08T10:27:10;100641.00;;;4.28;100.00
36748;BME280;22716;51.556;5.080;2022-12-08T10:29:42;100636.59;;;4.20;100.00
36748;BME280;22716;51.556;5.080;2022-12-08T10:32:17;100644.41;;;4.24;100.00
36748;BME280;22716;51.556;5.080;2022-12-08T10:35:03;100650.47;;;4.26;100.00
36748;BME280;22716;51.556;5.080;2022-12-08T10:37:36;100641.84;;;4.29;100.00
36748;BME280;22716;51.556;5.080;2022-12-08T10:40:12;100634.03;;;4.24;100.00
36748;BME280;22716;51.556;5.080;2022-12-08T10:42:46;100641.84;;;4.29;100.00
36748;BME280;22716;51.556;5.080;2022-12-08T10:45:26;100622.78;;;4.24;100.00
36748;BME280;22716;51.556;5.080;2022-12-08T10:48:03;100622.75;;;4.19;100.00
36748;BME280;22716;51.556;5.080;2022-12-08T10:50:34;100637.50;;;4.25;100.00
36748;BME280;22716;51.556;5.080;2022-12-08T10:53:14;100635.72;;;4.19;100.00
36748;BME280;22716;51.556;5.080;2022-12-08T10:55:49;100630.56;;;4.24;100.00
36748;BME280;22716;51.556;5.080;2022-12-08T10:58:23;100641.00;;;4.28;100.00
36748;BME280;22716;51.556;5.080;2022-12-08T11:01:01;100638.38;;;4.27;100.00
36748;BME280;22716;51.556;5.080;2022-12-08T11:03:34;100629.69;;;4.23;100.00
36748;BME280;22716;51.556;5.080;2022-12-08T11:06:11;100626.22;;;4.21;100.00
36748;BME280;22716;51.556;5.080;2022-12-08T11:08:48;100631.47;;;4.27;100.00
36748;BME280;22716;51.556;5.080;2022-12-08T11:11:19;100613.22;;;4.18;100.00
36748;BME280;22716;51.556;5.080;2022-12-08T11:13:51;100624.53;;;4.25;100.00
36748;BME280;22716;51.556;5.080;2022-12-08T11:16:22;100613.25;;;4.21;100.00
36748;BME280;22716;51.556;5.080;2022-12-08T11:18:56;100615.00;;;4.22;100.00
36748;BME280;22716;51.556;5.080;2022-12-08T11:21:35;100613.25;;;4.23;100.00
36748;BME280;22716;51.556;5.080;2022-12-08T11:24:22;100607.16;;;4.18;100.00
36748;BME280;22716;51.556;5.080;2022-12-08T11:26:57;100614.13;;;4.22;100.00
36748;BME280;22716;51.556;5.080;2022-12-08T11:29:30;100605.47;;;4.23;100.00
36748;BME280;22716;51.556;5.080;2022-12-08T11:32:10;100608.09;;;4.24;100.00
36748;BME280;22716;51.556;5.080;2022-12-08T11:34:45;100599.47;;;4.27;100.00
36748;BME280;22716;51.556;5.080;2022-12-08T11:37:20;100608.09;;;4.26;100.00
36748;BME280;22716;51.556;5.080;2022-12-08T11:39:55;100598.66;;;4.31;100.00
36748;BME280;22716;51.556;5.080;2022-12-08T11:42:31;100600.38;;;4.32;100.00
36748;BME280;22716;51.556;5.080;2022-12-08T11:45:10;100605.56;;;4.32;100.00
36748;BME280;22716;51.556;5.080;2022-12-08T11:47:45;100599.41;;;4.21;100.00
36748;BME280;22716;51.556;5.080;2022-12-08T11:50:21;100595.97;;;4.22;100.00
36748;BME280;22716;51.556;5.080;2022-12-08T11:52:53;100595.09;;;4.23;100.00
36748;BME280;22716;51.556;5.080;2022-12-08T11:55:43;100586.44;;;4.21;100.00
36748;BME280;22716;51.556;5.080;2022-12-08T11:58:17;100584.66;;;4.14;100.00
36748;BME280;22716;51.556;5.080;2022-12-08T12:00:54;100582.00;;;4.11;100.00
36748;BME280;22716;51.556;5.080;2022-12-08T12:03:31;100582.09;;;4.18;100.00
36748;BME280;22716;51.556;5.080;2022-12-08T12:09:33;100574.28;;;4.15;100.00
36748;BME280;22716;51.556;5.080;2022-12-08T12:12:19;100574.25;;;4.12;100.00
36748;BME280;22716;51.556;5.080;2022-12-08T12:15:28;100569.81;;;4.05;100.00
36748;BME280;22716;51.556;5.080;2022-12-08T12:18:07;100575.09;;;4.11;100.00
36748;BME280;22716;51.556;5.080;2022-12-08T12:20:49;100582.97;;;4.19;100.00
36748;BME280;22716;51.556;5.080;2022-12-08T12:23:25;100578.59;;;4.13;100.00
36748;BME280;22716;51.556;5.080;2022-12-08T12:25:59;100572.53;;;4.13;100.00
36748;BME280;22716;51.556;5.080;2022-12-08T12:28:39;100573.31;;;4.09;100.00
36748;BME280;22716;51.556;5.080;2022-12-08T12:31:10;100570.75;;;4.09;100.00
36748;BME280;22716;51.556;5.080;2022-12-08T12:33:43;100562.16;;;4.13;100.00
36748;BME280;22716;51.556;5.080;2022-12-08T12:36:17;100568.28;;;4.19;100.00
36748;BME280;22716;51.556;5.080;2022-12-08T12:38:50;100559.50;;;4.08;100.00
36748;BME280;22716;51.556;5.080;2022-12-08T12:41:36;100561.22;;;4.06;100.00
36748;BME280;22716;51.556;5.080;2022-12-08T12:44:38;100554.28;;;4.05;100.00
36748;BME280;22716;51.556;5.080;2022-12-08T12:50:12;100559.50;;;4.08;100.00
36748;BME280;22716;51.556;5.080;2022-12-08T12:52:50;100553.59;;;4.20;100.00
36748;BME280;22716;51.556;5.080;2022-12-08T12:59:10;100551.88;;;4.23;100.00
36748;BME280;22716;51.556;5.080;2022-12-08T13:01:52;100547.66;;;4.31;100.00
36748;BME280;22716;51.556;5.080;2022-12-08T13:04:32;100528.59;;;4.28;100.00
36748;BME280;22716;51.556;5.080;2022-12-08T13:07:03;100536.50;;;4.40;100.00
36748;BME280;22716;51.556;5.080;2022-12-08T13:09:41;100523.50;;;4.37;100.00
36748;BME280;22716;51.556;5.080;2022-12-08T13:12:22;100524.47;;;4.48;100.00
36748;BME280;22716;51.556;5.080;2022-12-08T13:14:57;100522.72;;;4.47;100.00
36748;BME280;22716;51.556;5.080;2022-12-08T13:17:32;100520.06;;;4.41;100.00
36748;BME280;22716;51.556;5.080;2022-12-08T13:20:20;100497.47;;;4.28;100.00
36748;BME280;22716;51.556;5.080;2022-12-08T13:26:16;100527.03;;;4.45;100.00
36748;BME280;22716;51.556;5.080;2022-12-08T13:29:18;100535.66;;;4.44;100.00
36748;BME280;22716;51.556;5.080;2022-12-08T13:31:50;100521.78;;;4.39;100.00
36748;BME280;22716;51.556;5.080;2022-12-08T13:34:30;100539.16;;;4.46;100.00
36748;BME280;22716;51.556;5.080;2022-12-08T13:37:19;100521.78;;;4.40;100.00
36748;BME280;22716;51.556;5.080;2022-12-08T13:40:07;100540.91;;;4.48;100.00
36748;BME280;22716;51.556;5.080;2022-12-08T13:42:44;100540.88;;;4.47;100.00
36748;BME280;22716;51.556;5.080;2022-12-08T13:45:23;100538.22;;;4.41;100.00